Airfield :
LOGIN :

Register | Disclaimer

   EN    FR    IT 

 










Legend :    VFR   Marginal VFR   IFR   Intensive IFR   Very Intensive IFR
Visi :
Ceiling :
>= 8 km
>= 3000ft
5 to 8 km
1000 to 3000 ft
1500m to 5 km
500 to 1000 ft
800 to 1500m
200 to 500 ft
< 800m
< 200 ft
Symbols :   Thunderstorms  Fog  Heavy snow  Heavy precipitations  Wind > 20 kt
SIGMETs :     Misc.  Thunderstorms  Icing  Turbulence  Mountain Waves  Volcanic Ashes






- Airport Elevation : 545 ft
- IATA code : PZY


LZPP - Piešťany

CURRENT METAR :
  • 271730Z 25003KT 210V330 4400 BR OVC004 M01/M02 Q1017

EXPIRED METARs :
  • 271700Z VRB02KT 4100 BR OVC004 M01/M02 Q1017
  • 271630Z 29003KT 5000 BR OVC004 M01/M02 Q1017
  • 271600Z VRB01KT 6000 OVC004 M01/M02 Q1017
  • 271530Z VRB02KT 7000 OVC005 M01/M02 Q1017
  • 271500Z 01004KT 7000 OVC005 M01/M02 Q1017

TAF AMD TAF LZPP
Valid from the 27 at 17:00 until the 28 at 00:00 UTC


271706Z 2717/2800 32004KT 9999 OVC004
BECMG 2717/2719 4500 BR
TEMPO 2718/2800 2800 BR OVC003



MET'MAP, your aeronautical weather chart ! - Copyright ORBIFLY December 2007 - Disclaimer

ORBIFLY MET'MAP TEAM :

Programming & Development : Alexandra Zaïnal
Concept & original design : Baudouin d'Aumeries
Assistance for programming : Marc-Olivier Méhu
Technical & hardware support : Manuel Goepfert

Contact : metmap@orbifly.com




SOURCES & CREDITS :

   NOAA